sensor_id;sensor_type;location;lat;lon;timestamp;P1;durP1;ratioP1;P2;durP2;ratioP2
20535;SDS011;10426;49.420;8.390;2022-10-16T00:01:32;1.02;;;1.02;;
20535;SDS011;10426;49.420;8.390;2022-10-16T00:04:00;1.23;;;1.10;;
20535;SDS011;10426;49.420;8.390;2022-10-16T00:06:28;2.10;;;1.10;;
20535;SDS011;10426;49.420;8.390;2022-10-16T00:08:54;1.10;;;1.10;;
20535;SDS011;10426;49.420;8.390;2022-10-16T00:11:22;1.67;;;1.10;;
20535;SDS011;10426;49.420;8.390;2022-10-16T00:13:50;1.35;;;1.30;;
20535;SDS011;10426;49.420;8.390;2022-10-16T00:16:17;1.30;;;1.30;;
20535;SDS011;10426;49.420;8.390;2022-10-16T00:18:44;1.90;;;1.50;;
20535;SDS011;10426;49.420;8.390;2022-10-16T00:21:14;2.47;;;1.40;;
20535;SDS011;10426;49.420;8.390;2022-10-16T00:23:41;1.58;;;1.02;;
20535;SDS011;10426;49.420;8.390;2022-10-16T00:26:09;1.10;;;1.10;;
20535;SDS011;10426;49.420;8.390;2022-10-16T00:28:36;1.20;;;1.10;;
20535;SDS011;10426;49.420;8.390;2022-10-16T00:31:03;1.02;;;1.00;;
20535;SDS011;10426;49.420;8.390;2022-10-16T00:33:30;1.00;;;1.00;;
20535;SDS011;10426;49.420;8.390;2022-10-16T00:35:57;1.90;;;0.95;;
20535;SDS011;10426;49.420;8.390;2022-10-16T00:38:25;1.02;;;1.00;;
20535;SDS011;10426;49.420;8.390;2022-10-16T00:40:52;1.77;;;1.20;;
20535;SDS011;10426;49.420;8.390;2022-10-16T00:43:32;1.13;;;1.13;;
20535;SDS011;10426;49.420;8.390;2022-10-16T00:45:59;1.00;;;1.00;;
20535;SDS011;10426;49.420;8.390;2022-10-16T00:48:26;1.02;;;1.02;;
20535;SDS011;10426;49.420;8.390;2022-10-16T00:50:53;1.10;;;1.10;;
20535;SDS011;10426;49.420;8.390;2022-10-16T00:53:20;1.63;;;1.20;;
20535;SDS011;10426;49.420;8.390;2022-10-16T00:55:49;1.70;;;1.08;;
20535;SDS011;10426;49.420;8.390;2022-10-16T00:58:15;1.67;;;1.60;;
20535;SDS011;10426;49.420;8.390;2022-10-16T01:00:42;2.03;;;1.27;;
20535;SDS011;10426;49.420;8.390;2022-10-16T01:03:22;1.30;;;1.20;;
20535;SDS011;10426;49.420;8.390;2022-10-16T01:05:52;1.17;;;1.17;;
20535;SDS011;10426;49.420;8.390;2022-10-16T01:08:21;2.90;;;1.10;;
20535;SDS011;10426;49.420;8.390;2022-10-16T01:10:57;1.50;;;1.20;;
20535;SDS011;10426;49.420;8.390;2022-10-16T01:13:24;1.80;;;1.20;;
20535;SDS011;10426;49.420;8.390;2022-10-16T01:15:53;1.10;;;1.00;;
20535;SDS011;10426;49.420;8.390;2022-10-16T01:18:22;1.20;;;1.00;;
20535;SDS011;10426;49.420;8.390;2022-10-16T01:20:53;1.00;;;1.00;;
20535;SDS011;10426;49.420;8.390;2022-10-16T01:23:25;2.63;;;1.20;;
20535;SDS011;10426;49.420;8.390;2022-10-16T01:25:59;1.10;;;1.10;;
20535;SDS011;10426;49.420;8.390;2022-10-16T01:28:30;1.13;;;1.10;;
20535;SDS011;10426;49.420;8.390;2022-10-16T01:31:00;1.35;;;1.30;;
20535;SDS011;10426;49.420;8.390;2022-10-16T01:33:28;2.00;;;1.20;;
20535;SDS011;10426;49.420;8.390;2022-10-16T01:35:58;1.15;;;1.10;;
20535;SDS011;10426;49.420;8.390;2022-10-16T01:38:26;2.00;;;1.20;;
20535;SDS011;10426;49.420;8.390;2022-10-16T01:40:57;1.23;;;1.20;;
20535;SDS011;10426;49.420;8.390;2022-10-16T01:43:26;1.30;;;1.20;;
20535;SDS011;10426;49.420;8.390;2022-10-16T01:45:57;2.60;;;1.10;;
20535;SDS011;10426;49.420;8.390;2022-10-16T01:48:23;1.08;;;1.08;;
20535;SDS011;10426;49.420;8.390;2022-10-16T01:50:52;1.55;;;1.08;;
20535;SDS011;10426;49.420;8.390;2022-10-16T01:53:20;1.10;;;1.00;;
20535;SDS011;10426;49.420;8.390;2022-10-16T01:55:48;1.57;;;1.10;;
20535;SDS011;10426;49.420;8.390;2022-10-16T01:58:16;1.10;;;1.10;;
20535;SDS011;10426;49.420;8.390;2022-10-16T02:00:43;3.17;;;1.17;;
20535;SDS011;10426;49.420;8.390;2022-10-16T02:03:13;1.30;;;1.10;;
20535;SDS011;10426;49.420;8.390;2022-10-16T02:05:42;1.30;;;1.20;;
20535;SDS011;10426;49.420;8.390;2022-10-16T02:08:11;2.13;;;1.27;;
20535;SDS011;10426;49.420;8.390;2022-10-16T02:10:38;2.20;;;1.13;;
20535;SDS011;10426;49.420;8.390;2022-10-16T02:13:06;1.10;;;1.10;;
20535;SDS011;10426;49.420;8.390;2022-10-16T02:15:34;1.83;;;1.10;;
20535;SDS011;10426;49.420;8.390;2022-10-16T02:18:01;1.10;;;1.10;;
20535;SDS011;10426;49.420;8.390;2022-10-16T02:20:30;1.20;;;1.00;;
20535;SDS011;10426;49.420;8.390;2022-10-16T02:22:58;1.17;;;1.05;;
20535;SDS011;10426;49.420;8.390;2022-10-16T02:25:26;1.20;;;1.20;;
20535;SDS011;10426;49.420;8.390;2022-10-16T02:27:56;1.10;;;1.10;;
20535;SDS011;10426;49.420;8.390;2022-10-16T02:30:25;1.03;;;1.03;;
20535;SDS011;10426;49.420;8.390;2022-10-16T02:32:53;1.30;;;1.10;;
20535;SDS011;10426;49.420;8.390;2022-10-16T02:35:20;1.10;;;1.10;;
20535;SDS011;10426;49.420;8.390;2022-10-16T02:37:50;1.20;;;1.10;;
20535;SDS011;10426;49.420;8.390;2022-10-16T02:40:17;1.10;;;1.10;;
20535;SDS011;10426;49.420;8.390;2022-10-16T02:42:44;2.17;;;0.95;;
20535;SDS011;10426;49.420;8.390;2022-10-16T02:45:11;1.67;;;1.00;;
20535;SDS011;10426;49.420;8.390;2022-10-16T02:47:37;2.35;;;0.98;;
20535;SDS011;10426;49.420;8.390;2022-10-16T02:50:04;1.60;;;1.02;;
20535;SDS011;10426;49.420;8.390;2022-10-16T02:52:31;1.05;;;1.05;;
20535;SDS011;10426;49.420;8.390;2022-10-16T02:54:59;5.30;;;1.10;;
20535;SDS011;10426;49.420;8.390;2022-10-16T02:57:26;1.40;;;1.20;;
20535;SDS011;10426;49.420;8.390;2022-10-16T02:59:53;1.20;;;1.10;;
20535;SDS011;10426;49.420;8.390;2022-10-16T03:02:20;1.40;;;1.00;;
20535;SDS011;10426;49.420;8.390;2022-10-16T03:04:47;1.20;;;1.00;;
20535;SDS011;10426;49.420;8.390;2022-10-16T03:07:13;0.93;;;0.93;;
20535;SDS011;10426;49.420;8.390;2022-10-16T03:09:40;1.10;;;1.10;;
20535;SDS011;10426;49.420;8.390;2022-10-16T03:12:08;0.90;;;0.90;;
20535;SDS011;10426;49.420;8.390;2022-10-16T03:14:37;1.40;;;0.95;;
20535;SDS011;10426;49.420;8.390;2022-10-16T03:17:05;1.10;;;1.10;;
20535;SDS011;10426;49.420;8.390;2022-10-16T03:19:31;1.83;;;1.10;;
20535;SDS011;10426;49.420;8.390;2022-10-16T03:21:58;1.25;;;0.90;;
20535;SDS011;10426;49.420;8.390;2022-10-16T03:24:25;1.15;;;1.02;;
20535;SDS011;10426;49.420;8.390;2022-10-16T03:26:51;1.02;;;0.93;;
20535;SDS011;10426;49.420;8.390;2022-10-16T03:29:19;1.20;;;1.20;;
20535;SDS011;10426;49.420;8.390;2022-10-16T03:31:46;1.33;;;1.30;;
20535;SDS011;10426;49.420;8.390;2022-10-16T03:34:14;1.20;;;1.20;;
20535;SDS011;10426;49.420;8.390;2022-10-16T03:36:41;1.23;;;1.23;;
20535;SDS011;10426;49.420;8.390;2022-10-16T03:39:08;1.40;;;1.30;;
20535;SDS011;10426;49.420;8.390;2022-10-16T03:41:34;1.52;;;1.52;;
20535;SDS011;10426;49.420;8.390;2022-10-16T03:44:01;1.60;;;1.47;;
20535;SDS011;10426;49.420;8.390;2022-10-16T03:46:29;1.40;;;1.38;;
20535;SDS011;10426;49.420;8.390;2022-10-16T03:48:56;1.20;;;1.20;;
20535;SDS011;10426;49.420;8.390;2022-10-16T03:51:22;2.00;;;1.30;;
20535;SDS011;10426;49.420;8.390;2022-10-16T03:53:49;1.38;;;1.27;;
20535;SDS011;10426;49.420;8.390;2022-10-16T03:56:16;1.30;;;1.30;;
20535;SDS011;10426;49.420;8.390;2022-10-16T03:58:42;2.50;;;1.20;;
20535;SDS011;10426;49.420;8.390;2022-10-16T04:01:09;1.40;;;1.30;;
20535;SDS011;10426;49.420;8.390;2022-10-16T04:03:37;1.40;;;1.30;;
20535;SDS011;10426;49.420;8.390;2022-10-16T04:06:04;1.20;;;1.20;;
20535;SDS011;10426;49.420;8.390;2022-10-16T04:08:31;1.30;;;1.30;;
20535;SDS011;10426;49.420;8.390;2022-10-16T04:11:00;1.40;;;1.30;;
20535;SDS011;10426;49.420;8.390;2022-10-16T04:13:26;1.25;;;1.20;;
20535;SDS011;10426;49.420;8.390;2022-10-16T04:15:53;1.33;;;1.30;;
20535;SDS011;10426;49.420;8.390;2022-10-16T04:18:20;2.55;;;1.27;;
20535;SDS011;10426;49.420;8.390;2022-10-16T04:20:48;1.27;;;1.27;;
20535;SDS011;10426;49.420;8.390;2022-10-16T04:23:15;2.20;;;1.33;;
20535;SDS011;10426;49.420;8.390;2022-10-16T04:25:41;1.40;;;1.25;;
20535;SDS011;10426;49.420;8.390;2022-10-16T04:28:08;1.50;;;1.40;;
20535;SDS011;10426;49.420;8.390;2022-10-16T04:30:37;1.65;;;1.17;;
20535;SDS011;10426;49.420;8.390;2022-10-16T04:33:03;1.20;;;1.20;;
20535;SDS011;10426;49.420;8.390;2022-10-16T04:35:30;1.30;;;1.30;;
20535;SDS011;10426;49.420;8.390;2022-10-16T04:37:58;4.05;;;1.35;;
20535;SDS011;10426;49.420;8.390;2022-10-16T04:40:25;2.60;;;1.30;;
20535;SDS011;10426;49.420;8.390;2022-10-16T04:42:52;1.48;;;1.40;;
20535;SDS011;10426;49.420;8.390;2022-10-16T04:45:19;1.55;;;1.45;;
20535;SDS011;10426;49.420;8.390;2022-10-16T04:47:45;2.00;;;1.50;;
20535;SDS011;10426;49.420;8.390;2022-10-16T04:50:12;2.92;;;1.38;;
20535;SDS011;10426;49.420;8.390;2022-10-16T04:52:39;1.40;;;1.40;;
20535;SDS011;10426;49.420;8.390;2022-10-16T04:55:07;1.70;;;1.60;;
20535;SDS011;10426;49.420;8.390;2022-10-16T04:57:34;2.50;;;1.63;;
20535;SDS011;10426;49.420;8.390;2022-10-16T05:00:01;1.95;;;1.67;;
20535;SDS011;10426;49.420;8.390;2022-10-16T05:02:28;1.60;;;1.55;;
20535;SDS011;10426;49.420;8.390;2022-10-16T05:04:55;1.67;;;1.58;;
20535;SDS011;10426;49.420;8.390;2022-10-16T05:07:21;1.70;;;1.60;;
20535;SDS011;10426;49.420;8.390;2022-10-16T05:09:48;1.70;;;1.60;;
20535;SDS011;10426;49.420;8.390;2022-10-16T05:12:16;2.13;;;1.70;;
20535;SDS011;10426;49.420;8.390;2022-10-16T05:14:43;3.40;;;1.52;;
20535;SDS011;10426;49.420;8.390;2022-10-16T05:17:10;1.60;;;1.50;;
20535;SDS011;10426;49.420;8.390;2022-10-16T05:19:36;2.78;;;1.50;;
20535;SDS011;10426;49.420;8.390;2022-10-16T05:22:03;1.70;;;1.60;;
20535;SDS011;10426;49.420;8.390;2022-10-16T05:24:30;1.45;;;1.35;;
20535;SDS011;10426;49.420;8.390;2022-10-16T05:26:57;1.67;;;1.58;;
20535;SDS011;10426;49.420;8.390;2022-10-16T05:29:25;2.80;;;1.55;;
20535;SDS011;10426;49.420;8.390;2022-10-16T05:31:52;1.60;;;1.50;;
20535;SDS011;10426;49.420;8.390;2022-10-16T05:34:19;1.30;;;1.30;;
20535;SDS011;10426;49.420;8.390;2022-10-16T05:36:46;2.00;;;1.60;;
20535;SDS011;10426;49.420;8.390;2022-10-16T05:39:13;1.60;;;1.50;;
20535;SDS011;10426;49.420;8.390;2022-10-16T05:41:40;1.73;;;1.60;;
20535;SDS011;10426;49.420;8.390;2022-10-16T05:44:07;2.67;;;1.40;;
20535;SDS011;10426;49.420;8.390;2022-10-16T05:46:35;2.50;;;1.40;;
20535;SDS011;10426;49.420;8.390;2022-10-16T05:49:02;1.60;;;1.50;;
20535;SDS011;10426;49.420;8.390;2022-10-16T05:51:29;2.03;;;1.55;;
20535;SDS011;10426;49.420;8.390;2022-10-16T05:53:55;2.00;;;1.70;;
20535;SDS011;10426;49.420;8.390;2022-10-16T05:56:22;2.33;;;1.70;;
20535;SDS011;10426;49.420;8.390;2022-10-16T05:58:49;1.40;;;1.30;;
20535;SDS011;10426;49.420;8.390;2022-10-16T06:01:17;1.40;;;1.30;;
20535;SDS011;10426;49.420;8.390;2022-10-16T06:03:45;1.75;;;1.45;;
20535;SDS011;10426;49.420;8.390;2022-10-16T06:06:13;1.58;;;1.40;;
20535;SDS011;10426;49.420;8.390;2022-10-16T06:08:40;1.53;;;1.40;;
20535;SDS011;10426;49.420;8.390;2022-10-16T06:11:08;2.15;;;1.30;;
20535;SDS011;10426;49.420;8.390;2022-10-16T06:13:35;1.40;;;1.30;;
20535;SDS011;10426;49.420;8.390;2022-10-16T06:16:03;1.83;;;1.30;;
20535;SDS011;10426;49.420;8.390;2022-10-16T06:18:30;1.95;;;1.48;;
20535;SDS011;10426;49.420;8.390;2022-10-16T06:20:58;2.03;;;1.30;;
20535;SDS011;10426;49.420;8.390;2022-10-16T06:23:25;1.60;;;1.50;;
20535;SDS011;10426;49.420;8.390;2022-10-16T06:25:51;2.08;;;1.40;;
20535;SDS011;10426;49.420;8.390;2022-10-16T06:28:18;3.65;;;1.60;;
20535;SDS011;10426;49.420;8.390;2022-10-16T06:30:45;1.67;;;1.58;;
20535;SDS011;10426;49.420;8.390;2022-10-16T06:33:12;3.13;;;1.63;;
20535;SDS011;10426;49.420;8.390;2022-10-16T06:35:38;1.65;;;1.55;;
20535;SDS011;10426;49.420;8.390;2022-10-16T06:38:06;1.60;;;1.50;;
20535;SDS011;10426;49.420;8.390;2022-10-16T06:40:33;1.80;;;1.70;;
20535;SDS011;10426;49.420;8.390;2022-10-16T06:43:00;2.60;;;1.70;;
20535;SDS011;10426;49.420;8.390;2022-10-16T06:45:26;1.65;;;1.55;;
20535;SDS011;10426;49.420;8.390;2022-10-16T06:47:53;1.70;;;1.60;;
20535;SDS011;10426;49.420;8.390;2022-10-16T06:50:20;1.80;;;1.70;;
20535;SDS011;10426;49.420;8.390;2022-10-16T06:52:46;1.90;;;1.80;;
20535;SDS011;10426;49.420;8.390;2022-10-16T06:55:14;1.95;;;1.50;;
20535;SDS011;10426;49.420;8.390;2022-10-16T06:57:42;2.20;;;1.70;;
20535;SDS011;10426;49.420;8.390;2022-10-16T07:00:09;2.75;;;1.83;;
20535;SDS011;10426;49.420;8.390;2022-10-16T07:02:36;1.77;;;1.67;;
20535;SDS011;10426;49.420;8.390;2022-10-16T07:05:03;1.77;;;1.70;;
20535;SDS011;10426;49.420;8.390;2022-10-16T07:07:29;1.83;;;1.73;;
20535;SDS011;10426;49.420;8.390;2022-10-16T07:09:56;1.48;;;1.45;;
20535;SDS011;10426;49.420;8.390;2022-10-16T07:12:24;1.65;;;1.55;;
20535;SDS011;10426;49.420;8.390;2022-10-16T07:14:51;1.65;;;1.55;;
20535;SDS011;10426;49.420;8.390;2022-10-16T07:17:19;1.77;;;1.50;;
20535;SDS011;10426;49.420;8.390;2022-10-16T07:19:46;2.00;;;1.40;;
20535;SDS011;10426;49.420;8.390;2022-10-16T07:22:13;1.58;;;1.48;;
20535;SDS011;10426;49.420;8.390;2022-10-16T07:24:39;1.60;;;1.50;;
20535;SDS011;10426;49.420;8.390;2022-10-16T07:27:06;1.60;;;1.50;;
20535;SDS011;10426;49.420;8.390;2022-10-16T07:29:34;2.00;;;1.63;;
20535;SDS011;10426;49.420;8.390;2022-10-16T07:32:01;1.70;;;1.60;;
20535;SDS011;10426;49.420;8.390;2022-10-16T07:34:28;1.50;;;1.40;;
20535;SDS011;10426;49.420;8.390;2022-10-16T07:36:54;1.50;;;1.50;;
20535;SDS011;10426;49.420;8.390;2022-10-16T07:39:21;1.83;;;1.50;;
20535;SDS011;10426;49.420;8.390;2022-10-16T07:41:48;2.05;;;1.50;;
20535;SDS011;10426;49.420;8.390;2022-10-16T07:44:15;1.50;;;1.42;;
20535;SDS011;10426;49.420;8.390;2022-10-16T07:46:43;1.60;;;1.50;;
20535;SDS011;10426;49.420;8.390;2022-10-16T07:49:09;1.67;;;1.58;;
20535;SDS011;10426;49.420;8.390;2022-10-16T07:51:36;1.50;;;1.40;;
20535;SDS011;10426;49.420;8.390;2022-10-16T07:54:04;1.52;;;1.42;;
20535;SDS011;10426;49.420;8.390;2022-10-16T07:56:32;2.22;;;1.40;;
20535;SDS011;10426;49.420;8.390;2022-10-16T07:58:58;1.60;;;1.42;;
20535;SDS011;10426;49.420;8.390;2022-10-16T08:01:25;1.40;;;1.40;;
20535;SDS011;10426;49.420;8.390;2022-10-16T08:03:56;2.15;;;1.80;;
20535;SDS011;10426;49.420;8.390;2022-10-16T08:06:23;1.83;;;1.73;;
20535;SDS011;10426;49.420;8.390;2022-10-16T08:08:49;1.70;;;1.40;;
20535;SDS011;10426;49.420;8.390;2022-10-16T08:11:16;1.65;;;1.55;;
20535;SDS011;10426;49.420;8.390;2022-10-16T08:13:43;1.45;;;1.40;;
20535;SDS011;10426;49.420;8.390;2022-10-16T08:16:10;2.22;;;1.58;;
20535;SDS011;10426;49.420;8.390;2022-10-16T08:18:37;2.22;;;1.60;;
20535;SDS011;10426;49.420;8.390;2022-10-16T08:21:06;3.10;;;1.48;;
20535;SDS011;10426;49.420;8.390;2022-10-16T08:23:33;1.55;;;1.35;;
20535;SDS011;10426;49.420;8.390;2022-10-16T08:26:02;1.58;;;1.48;;
20535;SDS011;10426;49.420;8.390;2022-10-16T08:28:29;2.03;;;1.35;;
20535;SDS011;10426;49.420;8.390;2022-10-16T08:30:56;1.42;;;1.42;;
20535;SDS011;10426;49.420;8.390;2022-10-16T08:33:23;1.60;;;1.50;;
20535;SDS011;10426;49.420;8.390;2022-10-16T08:35:50;1.83;;;1.63;;
20535;SDS011;10426;49.420;8.390;2022-10-16T08:38:19;2.22;;;1.30;;
20535;SDS011;10426;49.420;8.390;2022-10-16T08:40:46;1.65;;;1.50;;
20535;SDS011;10426;49.420;8.390;2022-10-16T08:43:21;1.80;;;1.47;;
20535;SDS011;10426;49.420;8.390;2022-10-16T08:45:59;1.80;;;1.70;;
20535;SDS011;10426;49.420;8.390;2022-10-16T08:48:33;1.63;;;1.52;;
20535;SDS011;10426;49.420;8.390;2022-10-16T08:51:02;1.60;;;1.50;;
20535;SDS011;10426;49.420;8.390;2022-10-16T08:53:37;3.40;;;1.70;;
20535;SDS011;10426;49.420;8.390;2022-10-16T08:56:06;2.10;;;1.90;;
20535;SDS011;10426;49.420;8.390;2022-10-16T08:58:33;1.70;;;1.60;;
20535;SDS011;10426;49.420;8.390;2022-10-16T09:01:00;2.00;;;1.90;;
20535;SDS011;10426;49.420;8.390;2022-10-16T09:03:33;1.88;;;1.77;;
20535;SDS011;10426;49.420;8.390;2022-10-16T09:06:06;1.65;;;1.55;;
20535;SDS011;10426;49.420;8.390;2022-10-16T09:08:37;2.45;;;1.67;;
20535;SDS011;10426;49.420;8.390;2022-10-16T09:11:09;1.75;;;1.65;;
20535;SDS011;10426;49.420;8.390;2022-10-16T09:13:43;1.52;;;1.42;;
20535;SDS011;10426;49.420;8.390;2022-10-16T09:16:15;1.92;;;1.63;;
20535;SDS011;10426;49.420;8.390;2022-10-16T09:18:44;1.55;;;1.55;;
20535;SDS011;10426;49.420;8.390;2022-10-16T09:21:13;1.70;;;1.60;;
20535;SDS011;10426;49.420;8.390;2022-10-16T09:23:43;1.80;;;1.60;;
20535;SDS011;10426;49.420;8.390;2022-10-16T09:26:11;1.80;;;1.70;;
20535;SDS011;10426;49.420;8.390;2022-10-16T09:28:39;1.97;;;1.40;;
20535;SDS011;10426;49.420;8.390;2022-10-16T09:31:07;2.40;;;1.45;;
20535;SDS011;10426;49.420;8.390;2022-10-16T09:33:37;1.73;;;1.63;;
20535;SDS011;10426;49.420;8.390;2022-10-16T09:36:06;3.03;;;1.70;;
20535;SDS011;10426;49.420;8.390;2022-10-16T09:38:33;3.40;;;1.50;;
20535;SDS011;10426;49.420;8.390;2022-10-16T09:41:03;2.50;;;1.60;;
20535;SDS011;10426;49.420;8.390;2022-10-16T09:43:38;1.80;;;1.60;;
20535;SDS011;10426;49.420;8.390;2022-10-16T09:46:06;3.07;;;1.50;;
20535;SDS011;10426;49.420;8.390;2022-10-16T09:48:35;1.60;;;1.50;;
20535;SDS011;10426;49.420;8.390;2022-10-16T09:51:03;3.30;;;1.50;;
20535;SDS011;10426;49.420;8.390;2022-10-16T09:53:38;1.55;;;1.45;;
20535;SDS011;10426;49.420;8.390;2022-10-16T09:56:06;2.20;;;1.50;;
20535;SDS011;10426;49.420;8.390;2022-10-16T09:58:33;2.20;;;1.50;;
20535;SDS011;10426;49.420;8.390;2022-10-16T10:00:59;2.15;;;1.50;;
20535;SDS011;10426;49.420;8.390;2022-10-16T10:06:22;2.03;;;1.60;;
20535;SDS011;10426;49.420;8.390;2022-10-16T10:08:53;2.33;;;1.67;;
20535;SDS011;10426;49.420;8.390;2022-10-16T10:14:09;1.50;;;1.40;;
20535;SDS011;10426;49.420;8.390;2022-10-16T10:16:40;1.27;;;1.23;;
20535;SDS011;10426;49.420;8.390;2022-10-16T10:19:09;1.43;;;1.20;;
20535;SDS011;10426;49.420;8.390;2022-10-16T10:21:39;1.17;;;1.10;;
20535;SDS011;10426;49.420;8.390;2022-10-16T10:24:08;2.10;;;1.30;;
20535;SDS011;10426;49.420;8.390;2022-10-16T10:26:36;3.10;;;1.30;;
20535;SDS011;10426;49.420;8.390;2022-10-16T10:29:03;1.70;;;1.40;;
20535;SDS011;10426;49.420;8.390;2022-10-16T10:31:36;2.07;;;1.30;;
20535;SDS011;10426;49.420;8.390;2022-10-16T10:34:11;1.98;;;1.50;;
20535;SDS011;10426;49.420;8.390;2022-10-16T10:36:40;1.42;;;1.33;;
20535;SDS011;10426;49.420;8.390;2022-10-16T10:39:08;1.15;;;1.15;;
20535;SDS011;10426;49.420;8.390;2022-10-16T10:41:44;1.10;;;1.10;;
20535;SDS011;10426;49.420;8.390;2022-10-16T10:44:18;1.40;;;1.30;;
20535;SDS011;10426;49.420;8.390;2022-10-16T10:46:51;2.28;;;1.30;;
20535;SDS011;10426;49.420;8.390;2022-10-16T10:49:31;1.40;;;1.30;;
20535;SDS011;10426;49.420;8.390;2022-10-16T10:52:05;3.70;;;1.40;;
20535;SDS011;10426;49.420;8.390;2022-10-16T10:54:37;1.27;;;1.27;;
20535;SDS011;10426;49.420;8.390;2022-10-16T10:57:09;3.22;;;1.30;;
20535;SDS011;10426;49.420;8.390;2022-10-16T11:02:21;1.20;;;1.20;;
20535;SDS011;10426;49.420;8.390;2022-10-16T11:05:02;1.25;;;1.15;;
20535;SDS011;10426;49.420;8.390;2022-10-16T11:07:34;1.95;;;1.38;;
20535;SDS011;10426;49.420;8.390;2022-10-16T11:10:03;2.83;;;1.53;;
20535;SDS011;10426;49.420;8.390;2022-10-16T11:12:34;1.30;;;1.30;;
20535;SDS011;10426;49.420;8.390;2022-10-16T11:15:04;2.45;;;1.40;;
20535;SDS011;10426;49.420;8.390;2022-10-16T11:17:33;1.13;;;1.13;;
20535;SDS011;10426;49.420;8.390;2022-10-16T11:20:04;1.75;;;1.30;;
20535;SDS011;10426;49.420;8.390;2022-10-16T11:22:37;1.03;;;1.03;;
20535;SDS011;10426;49.420;8.390;2022-10-16T11:25:06;1.63;;;1.30;;
20535;SDS011;10426;49.420;8.390;2022-10-16T11:27:40;1.30;;;1.20;;
20535;SDS011;10426;49.420;8.390;2022-10-16T11:30:13;2.65;;;1.38;;
20535;SDS011;10426;49.420;8.390;2022-10-16T11:32:47;1.65;;;1.30;;
20535;SDS011;10426;49.420;8.390;2022-10-16T11:35:17;1.38;;;1.27;;
20535;SDS011;10426;49.420;8.390;2022-10-16T11:37:44;1.60;;;1.40;;
20535;SDS011;10426;49.420;8.390;2022-10-16T11:40:16;2.25;;;1.35;;
20535;SDS011;10426;49.420;8.390;2022-10-16T11:42:46;1.50;;;1.40;;
20535;SDS011;10426;49.420;8.390;2022-10-16T11:45:23;2.45;;;1.40;;
20535;SDS011;10426;49.420;8.390;2022-10-16T11:47:54;2.67;;;1.30;;
20535;SDS011;10426;49.420;8.390;2022-10-16T11:50:24;3.70;;;2.30;;
20535;SDS011;10426;49.420;8.390;2022-10-16T11:52:52;1.95;;;1.77;;
20535;SDS011;10426;49.420;8.390;2022-10-16T11:55:20;1.70;;;1.60;;
20535;SDS011;10426;49.420;8.390;2022-10-16T11:57:49;1.60;;;1.48;;
20535;SDS011;10426;49.420;8.390;2022-10-16T12:00:19;1.73;;;1.33;;
20535;SDS011;10426;49.420;8.390;2022-10-16T12:02:50;1.50;;;1.42;;
20535;SDS011;10426;49.420;8.390;2022-10-16T12:05:22;1.50;;;1.40;;
20535;SDS011;10426;49.420;8.390;2022-10-16T12:07:51;2.17;;;1.70;;
20535;SDS011;10426;49.420;8.390;2022-10-16T12:10:21;1.90;;;1.80;;
20535;SDS011;10426;49.420;8.390;2022-10-16T12:12:48;1.50;;;1.40;;
20535;SDS011;10426;49.420;8.390;2022-10-16T12:15:19;2.20;;;1.50;;
20535;SDS011;10426;49.420;8.390;2022-10-16T12:17:47;1.50;;;1.40;;
20535;SDS011;10426;49.420;8.390;2022-10-16T12:20:23;2.50;;;1.50;;
20535;SDS011;10426;49.420;8.390;2022-10-16T12:22:52;1.75;;;1.65;;
20535;SDS011;10426;49.420;8.390;2022-10-16T12:25:20;2.17;;;1.60;;
20535;SDS011;10426;49.420;8.390;2022-10-16T12:27:53;1.70;;;1.60;;
20535;SDS011;10426;49.420;8.390;2022-10-16T12:30:20;1.85;;;1.63;;
20535;SDS011;10426;49.420;8.390;2022-10-16T12:32:52;1.90;;;1.80;;
20535;SDS011;10426;49.420;8.390;2022-10-16T12:35:21;1.52;;;1.42;;
20535;SDS011;10426;49.420;8.390;2022-10-16T12:37:49;1.60;;;1.50;;
20535;SDS011;10426;49.420;8.390;2022-10-16T12:40:22;1.70;;;1.50;;
20535;SDS011;10426;49.420;8.390;2022-10-16T12:42:49;1.60;;;1.60;;
20535;SDS011;10426;49.420;8.390;2022-10-16T12:45:27;1.85;;;1.50;;
20535;SDS011;10426;49.420;8.390;2022-10-16T12:47:55;1.40;;;1.40;;
20535;SDS011;10426;49.420;8.390;2022-10-16T12:50:34;1.80;;;1.50;;
20535;SDS011;10426;49.420;8.390;2022-10-16T12:53:01;3.05;;;1.80;;
20535;SDS011;10426;49.420;8.390;2022-10-16T12:55:31;1.52;;;1.42;;
20535;SDS011;10426;49.420;8.390;2022-10-16T12:58:15;1.80;;;1.70;;
20535;SDS011;10426;49.420;8.390;2022-10-16T13:00:48;1.92;;;1.48;;
20535;SDS011;10426;49.420;8.390;2022-10-16T13:06:08;1.65;;;1.40;;
20535;SDS011;10426;49.420;8.390;2022-10-16T13:08:44;2.97;;;1.40;;
20535;SDS011;10426;49.420;8.390;2022-10-16T13:11:15;2.47;;;1.50;;
20535;SDS011;10426;49.420;8.390;2022-10-16T13:14:05;1.60;;;1.50;;
20535;SDS011;10426;49.420;8.390;2022-10-16T13:16:39;1.60;;;1.50;;
20535;SDS011;10426;49.420;8.390;2022-10-16T13:19:12;1.60;;;1.50;;
20535;SDS011;10426;49.420;8.390;2022-10-16T13:21:44;1.40;;;1.30;;
20535;SDS011;10426;49.420;8.390;2022-10-16T13:24:15;1.23;;;1.23;;
20535;SDS011;10426;49.420;8.390;2022-10-16T13:26:46;1.30;;;1.30;;
20535;SDS011;10426;49.420;8.390;2022-10-16T13:29:16;1.27;;;1.17;;
20535;SDS011;10426;49.420;8.390;2022-10-16T13:31:43;1.38;;;1.27;;
20535;SDS011;10426;49.420;8.390;2022-10-16T13:34:11;1.40;;;1.30;;
20535;SDS011;10426;49.420;8.390;2022-10-16T13:36:44;1.50;;;1.40;;
20535;SDS011;10426;49.420;8.390;2022-10-16T13:39:13;2.05;;;1.42;;
20535;SDS011;10426;49.420;8.390;2022-10-16T13:41:40;2.03;;;1.50;;
20535;SDS011;10426;49.420;8.390;2022-10-16T13:44:11;3.50;;;1.60;;
20535;SDS011;10426;49.420;8.390;2022-10-16T13:46:39;1.63;;;1.38;;
20535;SDS011;10426;49.420;8.390;2022-10-16T13:49:11;3.23;;;1.20;;
20535;SDS011;10426;49.420;8.390;2022-10-16T13:51:39;2.25;;;1.35;;
20535;SDS011;10426;49.420;8.390;2022-10-16T13:54:08;1.55;;;1.30;;
20535;SDS011;10426;49.420;8.390;2022-10-16T13:56:35;1.30;;;1.30;;
20535;SDS011;10426;49.420;8.390;2022-10-16T13:59:03;1.40;;;1.30;;
20535;SDS011;10426;49.420;8.390;2022-10-16T14:01:30;1.45;;;1.45;;
20535;SDS011;10426;49.420;8.390;2022-10-16T14:04:01;1.95;;;1.42;;
20535;SDS011;10426;49.420;8.390;2022-10-16T14:06:28;1.35;;;1.35;;
20535;SDS011;10426;49.420;8.390;2022-10-16T14:08:56;3.13;;;1.80;;
20535;SDS011;10426;49.420;8.390;2022-10-16T14:11:26;1.60;;;1.50;;
20535;SDS011;10426;49.420;8.390;2022-10-16T14:13:52;1.60;;;1.50;;
20535;SDS011;10426;49.420;8.390;2022-10-16T14:16:20;1.60;;;1.50;;
20535;SDS011;10426;49.420;8.390;2022-10-16T14:18:50;1.58;;;1.45;;
20535;SDS011;10426;49.420;8.390;2022-10-16T14:21:21;1.20;;;1.20;;
20535;SDS011;10426;49.420;8.390;2022-10-16T14:23:48;1.70;;;1.40;;
20535;SDS011;10426;49.420;8.390;2022-10-16T14:26:16;1.60;;;1.50;;
20535;SDS011;10426;49.420;8.390;2022-10-16T14:28:45;1.70;;;1.60;;
20535;SDS011;10426;49.420;8.390;2022-10-16T14:31:25;3.38;;;1.50;;
20535;SDS011;10426;49.420;8.390;2022-10-16T14:33:53;1.83;;;1.20;;
20535;SDS011;10426;49.420;8.390;2022-10-16T14:36:20;1.30;;;1.20;;
20535;SDS011;10426;49.420;8.390;2022-10-16T14:38:53;2.30;;;1.50;;
20535;SDS011;10426;49.420;8.390;2022-10-16T14:41:21;1.73;;;1.63;;
20535;SDS011;10426;49.420;8.390;2022-10-16T14:43:51;1.40;;;1.40;;
20535;SDS011;10426;49.420;8.390;2022-10-16T14:46:19;1.33;;;1.30;;
20535;SDS011;10426;49.420;8.390;2022-10-16T14:48:47;2.10;;;1.53;;
20535;SDS011;10426;49.420;8.390;2022-10-16T14:51:14;1.80;;;1.70;;
20535;SDS011;10426;49.420;8.390;2022-10-16T14:53:41;2.47;;;2.30;;
20535;SDS011;10426;49.420;8.390;2022-10-16T14:56:08;3.00;;;2.80;;
20535;SDS011;10426;49.420;8.390;2022-10-16T14:58:35;5.35;;;3.80;;
20535;SDS011;10426;49.420;8.390;2022-10-16T15:01:03;7.63;;;4.63;;
20535;SDS011;10426;49.420;8.390;2022-10-16T15:03:32;6.28;;;4.25;;
20535;SDS011;10426;49.420;8.390;2022-10-16T15:05:58;8.43;;;5.00;;
20535;SDS011;10426;49.420;8.390;2022-10-16T15:08:25;8.05;;;4.28;;